sensor_id;sensor_type;location;lat;lon;timestamp;pressure;altitude;pressure_sealevel;temperature;humidity
7768;BME280;3928;42.626;23.382;2023-04-09T00:01:18;94361.13;;;10.23;87.91
7768;BME280;3928;42.626;23.382;2023-04-09T00:03:45;94355.91;;;10.28;87.17
7768;BME280;3928;42.626;23.382;2023-04-09T00:06:11;94356.69;;;10.33;87.13
7768;BME280;3928;42.626;23.382;2023-04-09T00:08:38;94355.84;;;10.33;87.95
7768;BME280;3928;42.626;23.382;2023-04-09T00:11:05;94365.22;;;10.35;87.46
7768;BME280;3928;42.626;23.382;2023-04-09T00:13:32;94360.16;;;10.31;86.28
7768;BME280;3928;42.626;23.382;2023-04-09T00:16:00;94359.19;;;10.38;86.93
7768;BME280;3928;42.626;23.382;2023-04-09T00:18:27;94364.41;;;10.33;87.03
7768;BME280;3928;42.626;23.382;2023-04-09T00:20:53;94364.38;;;10.35;86.17
7768;BME280;3928;42.626;23.382;2023-04-09T00:23:20;94323.72;;;10.06;86.22
7768;BME280;3928;42.626;23.382;2023-04-09T00:25:47;94362.63;;;10.37;87.09
7768;BME280;3928;42.626;23.382;2023-04-09T00:28:14;94365.09;;;10.41;86.84
7768;BME280;3928;42.626;23.382;2023-04-09T00:30:41;94365.09;;;10.41;86.01
7768;BME280;3928;42.626;23.382;2023-04-09T00:33:11;94372.91;;;10.35;86.18
7768;BME280;3928;42.626;23.382;2023-04-09T00:35:38;94341.47;;;10.22;86.03
7768;BME280;3928;42.626;23.382;2023-04-09T00:38:04;94360.16;;;10.29;86.39
7768;BME280;3928;42.626;23.382;2023-04-09T00:40:31;94369.63;;;10.25;86.39
7768;BME280;3928;42.626;23.382;2023-04-09T00:42:58;94368.72;;;10.28;86.48
7768;BME280;3928;42.626;23.382;2023-04-09T00:45:25;94365.41;;;10.23;86.68
7768;BME280;3928;42.626;23.382;2023-04-09T00:47:52;94360.31;;;10.17;87.23
7768;BME280;3928;42.626;23.382;2023-04-09T00:50:20;94366.34;;;10.14;87.12
7768;BME280;3928;42.626;23.382;2023-04-09T00:52:47;94361.97;;;10.21;87.24
7768;BME280;3928;42.626;23.382;2023-04-09T00:55:14;94363.72;;;10.19;87.59
7768;BME280;3928;42.626;23.382;2023-04-09T00:57:42;94368.97;;;10.10;87.47
7768;BME280;3928;42.626;23.382;2023-04-09T01:00:10;94359.44;;;10.18;86.44
7768;BME280;3928;42.626;23.382;2023-04-09T01:02:38;94365.44;;;10.17;86.37
7768;BME280;3928;42.626;23.382;2023-04-09T01:05:06;94360.34;;;10.14;85.92
7768;BME280;3928;42.626;23.382;2023-04-09T01:07:46;94334.28;;;9.86;87.18
7768;BME280;3928;42.626;23.382;2023-04-09T01:10:24;94381.16;;;9.92;87.31
7768;BME280;3928;42.626;23.382;2023-04-09T01:12:59;94354.00;;;9.79;88.08
7768;BME280;3928;42.626;23.382;2023-04-09T01:15:33;94364.06;;;9.94;87.57
7768;BME280;3928;42.626;23.382;2023-04-09T01:18:06;94374.16;;;10.04;87.31
7768;BME280;3928;42.626;23.382;2023-04-09T01:20:38;94363.97;;;10.01;86.77
7768;BME280;3928;42.626;23.382;2023-04-09T01:23:14;94361.63;;;9.85;87.46
7768;BME280;3928;42.626;23.382;2023-04-09T01:25:49;94344.56;;;9.81;87.05
7768;BME280;3928;42.626;23.382;2023-04-09T01:28:22;94369.16;;;9.96;86.09
7768;BME280;3928;42.626;23.382;2023-04-09T01:30:54;94369.91;;;10.03;86.01
7768;BME280;3928;42.626;23.382;2023-04-09T01:33:23;94365.53;;;10.11;86.21
7768;BME280;3928;42.626;23.382;2023-04-09T01:35:51;94364.75;;;10.06;85.90
7768;BME280;3928;42.626;23.382;2023-04-09T01:38:19;94371.53;;;10.10;85.38
7768;BME280;3928;42.626;23.382;2023-04-09T01:40:47;94361.50;;;9.94;85.92
7768;BME280;3928;42.626;23.382;2023-04-09T01:43:16;94375.00;;;10.06;85.59
7768;BME280;3928;42.626;23.382;2023-04-09T01:45:45;94358.84;;;10.01;85.63
7768;BME280;3928;42.626;23.382;2023-04-09T01:48:13;94377.41;;;10.16;85.98
7768;BME280;3928;42.626;23.382;2023-04-09T01:50:40;94372.25;;;10.21;85.24
7768;BME280;3928;42.626;23.382;2023-04-09T01:53:07;94216.47;;;9.18;84.25
7768;BME280;3928;42.626;23.382;2023-04-09T01:55:34;94360.34;;;10.14;84.28
7768;BME280;3928;42.626;23.382;2023-04-09T01:58:01;94369.69;;;10.19;84.32
7768;BME280;3928;42.626;23.382;2023-04-09T02:00:33;94287.63;;;9.58;84.66
7768;BME280;3928;42.626;23.382;2023-04-09T02:03:05;94367.41;;;10.00;84.75
7768;BME280;3928;42.626;23.382;2023-04-09T02:05:36;94375.91;;;10.02;84.62
7768;BME280;3928;42.626;23.382;2023-04-09T02:08:06;94342.06;;;9.78;84.16
7768;BME280;3928;42.626;23.382;2023-04-09T02:10:34;94373.44;;;9.94;84.07
7768;BME280;3928;42.626;23.382;2023-04-09T02:13:04;94377.88;;;9.81;84.61
7768;BME280;3928;42.626;23.382;2023-04-09T02:15:34;94376.28;;;9.74;84.68
7768;BME280;3928;42.626;23.382;2023-04-09T02:18:03;94374.75;;;9.61;84.61
7768;BME280;3928;42.626;23.382;2023-04-09T02:20:30;94373.00;;;9.63;84.07
7768;BME280;3928;42.626;23.382;2023-04-09T02:22:57;94378.84;;;9.74;84.36
7768;BME280;3928;42.626;23.382;2023-04-09T02:25:24;94374.47;;;9.81;84.11
7768;BME280;3928;42.626;23.382;2023-04-09T02:27:53;94364.22;;;9.81;83.58
7768;BME280;3928;42.626;23.382;2023-04-09T02:30:20;94360.09;;;9.72;83.96
7768;BME280;3928;42.626;23.382;2023-04-09T02:32:47;94362.59;;;9.75;83.39
7768;BME280;3928;42.626;23.382;2023-04-09T02:35:15;94361.81;;;9.68;83.44
7768;BME280;3928;42.626;23.382;2023-04-09T02:37:42;94365.16;;;9.75;84.04
7768;BME280;3928;42.626;23.382;2023-04-09T02:40:09;94366.75;;;9.82;83.84
7768;BME280;3928;42.626;23.382;2023-04-09T02:42:36;94365.94;;;9.80;83.86
7768;BME280;3928;42.626;23.382;2023-04-09T02:45:03;94366.81;;;9.79;82.11
7768;BME280;3928;42.626;23.382;2023-04-09T02:47:30;94372.94;;;9.67;81.21
7768;BME280;3928;42.626;23.382;2023-04-09T02:49:57;94363.00;;;9.42;80.85
7768;BME280;3928;42.626;23.382;2023-04-09T02:52:25;94361.31;;;9.41;81.37
7768;BME280;3928;42.626;23.382;2023-04-09T02:54:52;94357.84;;;9.43;81.78
7768;BME280;3928;42.626;23.382;2023-04-09T02:57:19;94355.25;;;9.46;82.36
7768;BME280;3928;42.626;23.382;2023-04-09T02:59:46;94353.50;;;9.51;82.02
7768;BME280;3928;42.626;23.382;2023-04-09T03:02:12;94360.34;;;9.51;81.18
7768;BME280;3928;42.626;23.382;2023-04-09T03:04:40;94359.41;;;9.55;81.34
7768;BME280;3928;42.626;23.382;2023-04-09T03:07:07;94359.38;;;9.58;82.00
7768;BME280;3928;42.626;23.382;2023-04-09T03:09:35;94352.56;;;9.57;81.75
7768;BME280;3928;42.626;23.382;2023-04-09T03:12:02;94351.00;;;9.45;81.61
7768;BME280;3928;42.626;23.382;2023-04-09T03:14:29;94358.34;;;8.96;84.91
7768;BME280;3928;42.626;23.382;2023-04-09T03:16:56;94332.84;;;8.88;85.53
7768;BME280;3928;42.626;23.382;2023-04-09T03:19:23;94361.81;;;8.92;85.85
7768;BME280;3928;42.626;23.382;2023-04-09T03:21:49;94353.19;;;9.02;86.32
7768;BME280;3928;42.626;23.382;2023-04-09T03:24:16;94355.63;;;9.11;85.91
7768;BME280;3928;42.626;23.382;2023-04-09T03:26:44;94356.44;;;9.18;85.16
7768;BME280;3928;42.626;23.382;2023-04-09T03:29:11;94358.06;;;9.26;85.48
7768;BME280;3928;42.626;23.382;2023-04-09T03:31:38;94357.16;;;9.29;84.95
7768;BME280;3928;42.626;23.382;2023-04-09T03:34:05;94358.94;;;9.24;85.20
7768;BME280;3928;42.626;23.382;2023-04-09T03:36:31;94358.16;;;9.17;85.43
7768;BME280;3928;42.626;23.382;2023-04-09T03:38:58;94358.13;;;9.19;85.89
7768;BME280;3928;42.626;23.382;2023-04-09T03:41:26;94366.59;;;9.25;85.30
7768;BME280;3928;42.626;23.382;2023-04-09T03:43:54;94364.81;;;9.30;86.00
7768;BME280;3928;42.626;23.382;2023-04-09T03:46:21;94298.66;;;8.94;85.68
7768;BME280;3928;42.626;23.382;2023-04-09T03:48:49;94364.72;;;9.40;84.87
7768;BME280;3928;42.626;23.382;2023-04-09T03:51:16;94364.63;;;9.49;84.63
7768;BME280;3928;42.626;23.382;2023-04-09T03:53:43;94368.88;;;9.50;84.14
7768;BME280;3928;42.626;23.382;2023-04-09T03:56:10;94367.91;;;9.60;83.50
7768;BME280;3928;42.626;23.382;2023-04-09T03:58:37;94373.81;;;9.65;82.92
7768;BME280;3928;42.626;23.382;2023-04-09T04:01:05;94355.94;;;9.62;82.63
7768;BME280;3928;42.626;23.382;2023-04-09T04:03:32;94372.84;;;9.75;83.58
7768;BME280;3928;42.626;23.382;2023-04-09T04:06:00;94378.03;;;9.69;82.68
7768;BME280;3928;42.626;23.382;2023-04-09T04:08:28;94363.69;;;9.54;83.49
7768;BME280;3928;42.626;23.382;2023-04-09T04:10:55;94366.25;;;9.56;83.23
7768;BME280;3928;42.626;23.382;2023-04-09T04:13:21;94366.19;;;9.62;84.24
7768;BME280;3928;42.626;23.382;2023-04-09T04:15:48;94378.03;;;9.69;83.09
7768;BME280;3928;42.626;23.382;2023-04-09T04:18:16;94377.97;;;9.75;82.74
7768;BME280;3928;42.626;23.382;2023-04-09T04:20:43;94378.03;;;9.72;83.33
7768;BME280;3928;42.626;23.382;2023-04-09T04:23:10;94382.31;;;9.68;83.42
7768;BME280;3928;42.626;23.382;2023-04-09T04:25:39;94378.91;;;9.68;83.73
7768;BME280;3928;42.626;23.382;2023-04-09T04:28:08;94374.03;;;9.48;84.68
7768;BME280;3928;42.626;23.382;2023-04-09T04:30:35;94378.31;;;9.45;84.87
7768;BME280;3928;42.626;23.382;2023-04-09T04:33:01;94384.25;;;9.50;84.84
7768;BME280;3928;42.626;23.382;2023-04-09T04:35:29;94378.25;;;9.52;84.33
7768;BME280;3928;42.626;23.382;2023-04-09T04:37:56;94363.69;;;9.54;84.63
7768;BME280;3928;42.626;23.382;2023-04-09T04:40:23;94377.19;;;9.68;84.73
7768;BME280;3928;42.626;23.382;2023-04-09T04:42:50;94367.84;;;9.64;84.24
7768;BME280;3928;42.626;23.382;2023-04-09T04:45:16;94382.28;;;9.70;84.22
7768;BME280;3928;42.626;23.382;2023-04-09T04:47:43;94372.06;;;9.72;84.23
7768;BME280;3928;42.626;23.382;2023-04-09T04:50:10;94377.97;;;9.75;84.62
7768;BME280;3928;42.626;23.382;2023-04-09T04:52:38;94267.91;;;8.97;84.49
7768;BME280;3928;42.626;23.382;2023-04-09T04:55:05;94371.09;;;9.77;84.15
7768;BME280;3928;42.626;23.382;2023-04-09T04:57:32;94381.50;;;9.66;84.29
7768;BME280;3928;42.626;23.382;2023-04-09T04:59:59;94391.00;;;9.55;85.94
7768;BME280;3928;42.626;23.382;2023-04-09T05:02:26;94387.41;;;9.70;85.83
7768;BME280;3928;42.626;23.382;2023-04-09T05:04:53;94390.81;;;9.74;84.76
7768;BME280;3928;42.626;23.382;2023-04-09T05:07:19;94395.78;;;9.86;84.95
7768;BME280;3928;42.626;23.382;2023-04-09T05:09:47;94398.31;;;9.89;84.48
7768;BME280;3928;42.626;23.382;2023-04-09T05:12:14;94398.81;;;9.45;85.29
7768;BME280;3928;42.626;23.382;2023-04-09T05:14:44;94394.53;;;9.45;86.24
7768;BME280;3928;42.626;23.382;2023-04-09T05:17:11;94335.16;;;9.13;84.67
7768;BME280;3928;42.626;23.382;2023-04-09T05:19:37;94399.41;;;9.68;84.72
7768;BME280;3928;42.626;23.382;2023-04-09T05:22:04;94394.06;;;9.86;84.97
7768;BME280;3928;42.626;23.382;2023-04-09T05:24:31;94402.50;;;9.93;84.18
7768;BME280;3928;42.626;23.382;2023-04-09T05:26:59;94395.63;;;9.98;82.83
7768;BME280;3928;42.626;23.382;2023-04-09T05:29:26;94397.34;;;9.98;83.34
7768;BME280;3928;42.626;23.382;2023-04-09T05:31:53;94402.25;;;10.13;82.70
7768;BME280;3928;42.626;23.382;2023-04-09T05:34:20;94402.88;;;10.33;82.04
7768;BME280;3928;42.626;23.382;2023-04-09T05:36:47;94394.31;;;10.34;81.96
7768;BME280;3928;42.626;23.382;2023-04-09T05:39:14;94397.91;;;10.18;81.41
7768;BME280;3928;42.626;23.382;2023-04-09T05:41:42;94401.34;;;10.17;81.58
7768;BME280;3928;42.626;23.382;2023-04-09T05:44:10;94400.41;;;10.25;81.86
7768;BME280;3928;42.626;23.382;2023-04-09T05:46:37;94344.41;;;9.93;80.61
7768;BME280;3928;42.626;23.382;2023-04-09T05:49:04;94407.84;;;10.44;79.88
7768;BME280;3928;42.626;23.382;2023-04-09T05:51:32;94382.47;;;10.24;79.65
7768;BME280;3928;42.626;23.382;2023-04-09T05:53:58;94397.75;;;10.33;78.70
7768;BME280;3928;42.626;23.382;2023-04-09T05:56:25;94410.00;;;10.10;79.32
7768;BME280;3928;42.626;23.382;2023-04-09T05:58:52;94373.09;;;9.54;81.23
7768;BME280;3928;42.626;23.382;2023-04-09T06:01:20;94404.22;;;9.94;80.47
7768;BME280;3928;42.626;23.382;2023-04-09T06:03:47;94406.59;;;10.09;79.49
7768;BME280;3928;42.626;23.382;2023-04-09T06:06:14;94404.81;;;10.13;80.03
7768;BME280;3928;42.626;23.382;2023-04-09T06:08:41;94411.00;;;10.00;79.86
7768;BME280;3928;42.626;23.382;2023-04-09T06:11:09;94405.59;;;10.19;78.95
7768;BME280;3928;42.626;23.382;2023-04-09T06:13:36;94377.44;;;10.15;78.46
7768;BME280;3928;42.626;23.382;2023-04-09T06:16:04;94408.16;;;10.18;79.09
7768;BME280;3928;42.626;23.382;2023-04-09T06:18:32;94409.94;;;10.13;79.17
7768;BME280;3928;42.626;23.382;2023-04-09T06:21:02;94404.72;;;10.20;77.71
7768;BME280;3928;42.626;23.382;2023-04-09T06:23:29;94301.16;;;9.72;77.46
7768;BME280;3928;42.626;23.382;2023-04-09T06:25:56;94411.84;;;10.62;76.62
7768;BME280;3928;42.626;23.382;2023-04-09T06:28:23;94401.63;;;10.60;76.57
7768;BME280;3928;42.626;23.382;2023-04-09T06:30:50;94409.03;;;10.77;75.80
7768;BME280;3928;42.626;23.382;2023-04-09T06:33:18;94409.03;;;10.77;75.75
7768;BME280;3928;42.626;23.382;2023-04-09T06:35:46;94402.88;;;10.90;74.96
7768;BME280;3928;42.626;23.382;2023-04-09T06:38:13;94410.00;;;10.71;75.99
7768;BME280;3928;42.626;23.382;2023-04-09T06:40:40;94420.16;;;10.79;75.58
7768;BME280;3928;42.626;23.382;2023-04-09T06:43:07;94416.22;;;11.09;74.36
7768;BME280;3928;42.626;23.382;2023-04-09T06:45:35;94409.34;;;11.11;73.54
7768;BME280;3928;42.626;23.382;2023-04-09T06:48:04;94395.72;;;11.07;72.27
7768;BME280;3928;42.626;23.382;2023-04-09T06:50:31;94397.88;;;10.81;72.37
7768;BME280;3928;42.626;23.382;2023-04-09T06:52:59;94413.81;;;11.00;73.14
7768;BME280;3928;42.626;23.382;2023-04-09T06:55:26;94411.22;;;11.03;73.63
7768;BME280;3928;42.626;23.382;2023-04-09T06:57:53;94419.59;;;11.14;73.94
7768;BME280;3928;42.626;23.382;2023-04-09T07:00:20;94417.22;;;11.00;72.95
7768;BME280;3928;42.626;23.382;2023-04-09T07:02:47;94420.50;;;11.08;71.95
7768;BME280;3928;42.626;23.382;2023-04-09T07:05:15;94423.75;;;11.20;72.25
7768;BME280;3928;42.626;23.382;2023-04-09T07:07:42;94419.44;;;11.22;71.53
7768;BME280;3928;42.626;23.382;2023-04-09T07:10:10;94414.03;;;11.35;70.87
7768;BME280;3928;42.626;23.382;2023-04-09T07:12:39;94408.56;;;11.07;70.92
7768;BME280;3928;42.626;23.382;2023-04-09T07:15:06;94426.91;;;11.37;70.08
7768;BME280;3928;42.626;23.382;2023-04-09T07:17:33;94429.22;;;11.51;69.72
7768;BME280;3928;42.626;23.382;2023-04-09T07:20:00;94425.09;;;11.40;70.07
7768;BME280;3928;42.626;23.382;2023-04-09T07:22:28;94419.16;;;11.38;68.65
7768;BME280;3928;42.626;23.382;2023-04-09T07:24:55;94438.00;;;11.39;68.92
7768;BME280;3928;42.626;23.382;2023-04-09T07:27:25;94435.28;;;11.45;69.10
7768;BME280;3928;42.626;23.382;2023-04-09T07:29:53;94427.25;;;11.16;68.89
7768;BME280;3928;42.626;23.382;2023-04-09T07:32:21;94436.44;;;10.76;70.61
7768;BME280;3928;42.626;23.382;2023-04-09T07:34:50;94429.22;;;11.01;69.79
7768;BME280;3928;42.626;23.382;2023-04-09T07:37:16;94433.97;;;11.23;69.76
7768;BME280;3928;42.626;23.382;2023-04-09T07:39:43;94420.31;;;11.21;70.91
7768;BME280;3928;42.626;23.382;2023-04-09T07:42:11;94428.13;;;11.15;70.78
7768;BME280;3928;42.626;23.382;2023-04-09T07:44:39;94422.81;;;10.73;71.28
7768;BME280;3928;42.626;23.382;2023-04-09T07:47:07;94447.13;;;10.47;73.29
7768;BME280;3928;42.626;23.382;2023-04-09T07:49:34;94447.09;;;10.50;74.21
7768;BME280;3928;42.626;23.382;2023-04-09T07:52:01;94439.06;;;10.72;72.34
7768;BME280;3928;42.626;23.382;2023-04-09T07:54:28;94426.56;;;10.50;72.59
7768;BME280;3928;42.626;23.382;2023-04-09T07:56:55;94450.97;;;10.76;72.42
7768;BME280;3928;42.626;23.382;2023-04-09T07:59:22;94428.75;;;10.75;71.68
7768;BME280;3928;42.626;23.382;2023-04-09T08:01:51;94451.66;;;10.87;71.50
7768;BME280;3928;42.626;23.382;2023-04-09T08:04:17;94451.19;;;11.18;69.11
7768;BME280;3928;42.626;23.382;2023-04-09T08:06:44;94462.81;;;11.40;68.10
7768;BME280;3928;42.626;23.382;2023-04-09T08:09:15;94460.50;;;11.23;68.89
7768;BME280;3928;42.626;23.382;2023-04-09T08:11:41;94463.56;;;11.45;68.96
7768;BME280;3928;42.626;23.382;2023-04-09T08:14:10;94456.28;;;11.21;69.29
7768;BME280;3928;42.626;23.382;2023-04-09T08:16:38;94452.13;;;11.13;69.73
7768;BME280;3928;42.626;23.382;2023-04-09T08:19:07;94455.19;;;11.34;68.62
7768;BME280;3928;42.626;23.382;2023-04-09T08:21:35;94468.84;;;11.36;69.09
7768;BME280;3928;42.626;23.382;2023-04-09T08:24:02;94472.81;;;11.55;68.54
7768;BME280;3928;42.626;23.382;2023-04-09T08:26:30;94468.41;;;11.62;67.35
7768;BME280;3928;42.626;23.382;2023-04-09T08:28:57;94469.84;;;11.77;67.78
7768;BME280;3928;42.626;23.382;2023-04-09T08:31:24;94469.69;;;11.38;68.65
7768;BME280;3928;42.626;23.382;2023-04-09T08:33:51;94464.34;;;11.50;69.00
7768;BME280;3928;42.626;23.382;2023-04-09T08:36:20;94467.56;;;11.61;68.76
7768;BME280;3928;42.626;23.382;2023-04-09T08:38:47;94413.47;;;11.20;68.82
7768;BME280;3928;42.626;23.382;2023-04-09T08:41:19;94460.88;;;11.00;71.04
7768;BME280;3928;42.626;23.382;2023-04-09T08:43:46;94475.31;;;11.07;71.33
7768;BME280;3928;42.626;23.382;2023-04-09T08:46:14;94463.09;;;11.22;70.76
7768;BME280;3928;42.626;23.382;2023-04-09T08:48:42;94461.41;;;11.21;70.68
7768;BME280;3928;42.626;23.382;2023-04-09T08:51:12;94409.66;;;10.93;70.83
7768;BME280;3928;42.626;23.382;2023-04-09T08:53:42;94464.59;;;11.35;70.22
7768;BME280;3928;42.626;23.382;2023-04-09T08:56:10;94463.06;;;11.25;71.15
7768;BME280;3928;42.626;23.382;2023-04-09T08:58:41;94458.59;;;11.34;70.16
7768;BME280;3928;42.626;23.382;2023-04-09T09:01:18;94444.63;;;11.51;69.92
7768;BME280;3928;42.626;23.382;2023-04-09T09:03:56;94455.91;;;11.42;70.42
7768;BME280;3928;42.626;23.382;2023-04-09T09:06:24;94453.28;;;11.45;69.06
7768;BME280;3928;42.626;23.382;2023-04-09T09:09:01;94448.94;;;10.98;70.88
7768;BME280;3928;42.626;23.382;2023-04-09T09:11:28;94441.00;;;11.13;70.18
7768;BME280;3928;42.626;23.382;2023-04-09T09:14:03;94447.03;;;11.10;71.06
7768;BME280;3928;42.626;23.382;2023-04-09T09:16:30;94434.31;;;11.03;71.80
7768;BME280;3928;42.626;23.382;2023-04-09T09:18:59;94444.16;;;11.29;70.52
7768;BME280;3928;42.626;23.382;2023-04-09T09:21:27;94438.56;;;11.53;68.71
7768;BME280;3928;42.626;23.382;2023-04-09T09:23:54;94439.38;;;11.57;68.49
7768;BME280;3928;42.626;23.382;2023-04-09T09:26:24;94377.00;;;11.47;67.59
7768;BME280;3928;42.626;23.382;2023-04-09T09:28:52;94424.31;;;11.85;66.19
7768;BME280;3928;42.626;23.382;2023-04-09T09:31:19;94424.53;;;11.73;65.87
7768;BME280;3928;42.626;23.382;2023-04-09T09:33:47;94426.31;;;11.67;66.72
7768;BME280;3928;42.626;23.382;2023-04-09T09:36:15;94431.88;;;11.91;65.38
7768;BME280;3928;42.626;23.382;2023-04-09T09:38:52;94419.81;;;12.36;63.53
7768;BME280;3928;42.626;23.382;2023-04-09T09:41:19;94419.38;;;12.56;60.93
7768;BME280;3928;42.626;23.382;2023-04-09T09:43:47;94418.28;;;12.27;62.75
7768;BME280;3928;42.626;23.382;2023-04-09T09:46:15;94414.84;;;12.66;61.92
7768;BME280;3928;42.626;23.382;2023-04-09T09:48:42;94418.81;;;12.80;59.75
7768;BME280;3928;42.626;23.382;2023-04-09T09:51:11;94408.47;;;13.17;58.55
7768;BME280;3928;42.626;23.382;2023-04-09T09:53:38;94406.78;;;13.16;58.25
7768;BME280;3928;42.626;23.382;2023-04-09T09:56:07;94409.50;;;13.77;54.48
7768;BME280;3928;42.626;23.382;2023-04-09T09:58:41;94410.69;;;13.96;54.15
7768;BME280;3928;42.626;23.382;2023-04-09T10:01:12;94216.53;;;12.69;54.62
7768;BME280;3928;42.626;23.382;2023-04-09T10:03:41;94405.97;;;14.40;51.60
7768;BME280;3928;42.626;23.382;2023-04-09T10:06:10;94398.66;;;15.10;50.38
7768;BME280;3928;42.626;23.382;2023-04-09T10:08:40;94399.53;;;14.83;49.58
7768;BME280;3928;42.626;23.382;2023-04-09T10:11:07;94340.97;;;14.57;49.92
7768;BME280;3928;42.626;23.382;2023-04-09T10:13:37;94362.59;;;14.79;49.31
7768;BME280;3928;42.626;23.382;2023-04-09T10:16:06;94386.19;;;15.48;48.57
7768;BME280;3928;42.626;23.382;2023-04-09T10:18:34;94383.94;;;15.89;46.59
7768;BME280;3928;42.626;23.382;2023-04-09T10:21:06;94382.94;;;14.90;47.51
7768;BME280;3928;42.626;23.382;2023-04-09T10:23:38;94373.25;;;14.41;48.92
7768;BME280;3928;42.626;23.382;2023-04-09T10:26:06;94371.81;;;14.88;48.84
7768;BME280;3928;42.626;23.382;2023-04-09T10:28:33;94379.53;;;15.14;48.58
7768;BME280;3928;42.626;23.382;2023-04-09T10:31:00;94361.34;;;14.91;48.08
7768;BME280;3928;42.626;23.382;2023-04-09T10:33:27;94378.75;;;14.59;49.53
7768;BME280;3928;42.626;23.382;2023-04-09T10:35:59;94367.09;;;15.26;48.56
7768;BME280;3928;42.626;23.382;2023-04-09T10:38:34;94362.50;;;15.60;47.37
7768;BME280;3928;42.626;23.382;2023-04-09T10:41:12;94360.38;;;15.71;46.68
7768;BME280;3928;42.626;23.382;2023-04-09T10:43:40;94361.97;;;14.99;47.84
7768;BME280;3928;42.626;23.382;2023-04-09T10:46:25;94355.06;;;15.00;47.74
7768;BME280;3928;42.626;23.382;2023-04-09T10:49:07;94363.56;;;14.77;47.90
7768;BME280;3928;42.626;23.382;2023-04-09T10:51:36;94353.66;;;15.16;46.80
7768;BME280;3928;42.626;23.382;2023-04-09T10:54:04;94350.34;;;15.62;46.76
7768;BME280;3928;42.626;23.382;2023-04-09T10:56:31;94340.00;;;15.87;46.46
7768;BME280;3928;42.626;23.382;2023-04-09T10:58:58;94344.66;;;16.01;44.18
7768;BME280;3928;42.626;23.382;2023-04-09T11:01:25;94322.47;;;15.94;43.40
7768;BME280;3928;42.626;23.382;2023-04-09T11:04:07;94330.16;;;16.19;42.73
7768;BME280;3928;42.626;23.382;2023-04-09T11:06:38;94331.16;;;16.38;42.78
7768;BME280;3928;42.626;23.382;2023-04-09T11:09:06;94325.31;;;16.55;43.01
7768;BME280;3928;42.626;23.382;2023-04-09T11:11:32;94317.53;;;16.33;43.03
7768;BME280;3928;42.626;23.382;2023-04-09T11:14:00;94331.78;;;16.21;44.12
7768;BME280;3928;42.626;23.382;2023-04-09T11:16:28;94326.19;;;16.32;44.37
7768;BME280;3928;42.626;23.382;2023-04-09T11:18:55;94331.75;;;16.45;43.59
7768;BME280;3928;42.626;23.382;2023-04-09T11:21:25;94322.00;;;16.29;43.08
7768;BME280;3928;42.626;23.382;2023-04-09T11:23:54;94331.41;;;16.08;42.49
7768;BME280;3928;42.626;23.382;2023-04-09T11:26:25;94322.34;;;16.20;42.91
7768;BME280;3928;42.626;23.382;2023-04-09T11:29:04;94329.75;;;16.29;43.14
7768;BME280;3928;42.626;23.382;2023-04-09T11:31:31;94322.34;;;15.97;43.60
7768;BME280;3928;42.626;23.382;2023-04-09T11:33:58;94321.69;;;15.68;42.33
7768;BME280;3928;42.626;23.382;2023-04-09T11:36:25;94320.25;;;15.10;43.05
7768;BME280;3928;42.626;23.382;2023-04-09T11:38:54;94311.13;;;15.25;42.86
7768;BME280;3928;42.626;23.382;2023-04-09T11:41:32;94316.22;;;15.28;42.77
7768;BME280;3928;42.626;23.382;2023-04-09T11:44:02;94303.78;;;14.87;41.98
7768;BME280;3928;42.626;23.382;2023-04-09T11:46:29;94314.56;;;15.00;42.12
7768;BME280;3928;42.626;23.382;2023-04-09T11:48:58;94311.47;;;14.89;42.22
7768;BME280;3928;42.626;23.382;2023-04-09T11:51:25;94314.47;;;14.50;42.70
7768;BME280;3928;42.626;23.382;2023-04-09T11:53:54;94254.28;;;14.20;43.10
7768;BME280;3928;42.626;23.382;2023-04-09T11:56:21;94286.81;;;14.26;44.01
7768;BME280;3928;42.626;23.382;2023-04-09T11:58:48;94313.56;;;14.51;43.31
7768;BME280;3928;42.626;23.382;2023-04-09T12:01:14;94305.19;;;14.45;42.09
7768;BME280;3928;42.626;23.382;2023-04-09T12:03:41;94304.25;;;14.47;42.35
7768;BME280;3928;42.626;23.382;2023-04-09T12:06:08;94276.25;;;14.05;43.25
7768;BME280;3928;42.626;23.382;2023-04-09T12:08:35;94292.66;;;14.31;42.53
7768;BME280;3928;42.626;23.382;2023-04-09T12:11:10;94304.97;;;14.51;42.29
7768;BME280;3928;42.626;23.382;2023-04-09T12:13:38;94303.09;;;14.28;43.26
7768;BME280;3928;42.626;23.382;2023-04-09T12:16:07;94296.78;;;14.09;44.35
7768;BME280;3928;42.626;23.382;2023-04-09T12:18:35;94301.09;;;14.08;44.05
7768;BME280;3928;42.626;23.382;2023-04-09T12:21:02;94277.44;;;14.23;43.17
7768;BME280;3928;42.626;23.382;2023-04-09T12:23:29;94299.88;;;14.49;43.13
7768;BME280;3928;42.626;23.382;2023-04-09T12:25:56;94299.72;;;14.26;44.49
7768;BME280;3928;42.626;23.382;2023-04-09T12:28:27;94295.25;;;14.31;44.77
7768;BME280;3928;42.626;23.382;2023-04-09T12:30:54;94304.34;;;14.71;44.52
7768;BME280;3928;42.626;23.382;2023-04-09T12:33:22;94303.69;;;14.64;43.57
7768;BME280;3928;42.626;23.382;2023-04-09T12:35:49;94292.22;;;14.73;42.80
7768;BME280;3928;42.626;23.382;2023-04-09T12:38:16;94264.94;;;15.15;41.61
7768;BME280;3928;42.626;23.382;2023-04-09T12:40:43;94286.38;;;15.67;40.98
7768;BME280;3928;42.626;23.382;2023-04-09T12:43:11;94283.44;;;16.00;40.79
7768;BME280;3928;42.626;23.382;2023-04-09T12:45:39;94283.84;;;15.89;40.14
7768;BME280;3928;42.626;23.382;2023-04-09T12:48:06;94282.03;;;15.68;40.99
7768;BME280;3928;42.626;23.382;2023-04-09T12:50:33;94279.50;;;15.66;41.47
7768;BME280;3928;42.626;23.382;2023-04-09T12:52:59;94280.47;;;15.14;42.94
7768;BME280;3928;42.626;23.382;2023-04-09T12:55:28;94276.63;;;14.76;44.97
7768;BME280;3928;42.626;23.382;2023-04-09T12:57:54;94281.75;;;15.02;43.20
7768;BME280;3928;42.626;23.382;2023-04-09T13:00:21;94264.50;;;15.03;43.80
7768;BME280;3928;42.626;23.382;2023-04-09T13:02:49;94272.16;;;15.06;43.98
7768;BME280;3928;42.626;23.382;2023-04-09T13:05:16;94267.13;;;15.01;41.98
7768;BME280;3928;42.626;23.382;2023-04-09T13:07:43;94264.34;;;15.07;42.27
7768;BME280;3928;42.626;23.382;2023-04-09T13:10:11;94264.84;;;15.42;40.76
7768;BME280;3928;42.626;23.382;2023-04-09T13:12:37;94259.88;;;15.36;41.03
7768;BME280;3928;42.626;23.382;2023-04-09T13:15:05;94265.09;;;15.11;41.48
7768;BME280;3928;42.626;23.382;2023-04-09T13:17:32;94253.19;;;14.82;42.56
7768;BME280;3928;42.626;23.382;2023-04-09T13:20:00;94265.91;;;14.61;43.15